x

Buzzards Bay, Ma (buzm3) Weather Station

11:00 - Tue 25th Jul 2017 All times are EDT. -4 hours from GMT.

  • Wind
    14mph, 15mph gusts
  • Ar Temp 62°f
  • Sea Pressure 1022.8mb
  • Buzzards Bay, Ma
  • Buzzards Bay, Ma

More Historic Weather Station data

Upgrade to MSW Pro to gain access to the past 30 days of data for over 8000 Wavebouys and Weather Stations around the globe.

Join Pro

Comparision Forecast

View Surf forecast
   
Ter 07/25 11:00 14 15 mph 1022.8mb 62f
10:00 14 15 mph 1022.5mb 62f
9:00 11 13 mph 1022.4mb 63f
8:00 13 14 mph 1022.1mb 63f
7:00 14 16 mph 1021.4mb 63f
6:00 14 15 mph 1021.2mb 62f
5:00 13 14 mph 1020.9mb 62f
4:00 18 21 mph 1020.7mb 62f
3:00 14 16 mph 1020.4mb 62f
2:00 15 16 mph 1020mb 62f
1:00 15 15 mph 1019.5mb 61f
12:00 16 17 mph 1019.2mb 61f
11:00 16 17 mph 1018.5mb 61f
10:00 17 20 mph 1018.3mb 60f
9:00 15 16 mph 1018.3mb 60f
8:00 16 18 mph 1017.4mb 60f
7:00 17 18 mph 1016.9mb 60f
6:00 16 17 mph 1016.3mb 60f
5:00 20 21 mph 1015.2mb 60f
4:00 17 20 mph 1014.9mb 60f
3:00 22 23 mph 1014.2mb 60f
2:00 25 28 mph 1014.1mb 60f
1:00 21 23 mph 1014.4mb 60f
12:00 21 23 mph 1013.6mb 59f
Seg 07/24 11:00 23 26 mph 1013.1mb 60f
10:00 25 29 mph 1012mb 60f
9:00 23 25 mph 1011.7mb 61f
8:00 24 26 mph 1010.5mb 60f
7:00 25 28 mph 1009.7mb 60f
6:00 25 28 mph 1009.3mb 60f
5:00 26 31 mph 1008.8mb 61f
4:00 23 26 mph 1008.7mb 61f
3:00 20 21 mph 1008.8mb 64f
2:00 22 24 mph 1009.3mb 64f
1:00 25 28 mph 1010mb 64f
12:00 28 32 mph 1009.4mb 63f
11:00 26 29 mph 1010.4mb 63f
10:00 24 28 mph 1010.9mb 63f
9:00 26 30 mph 1011mb 62f
8:00 29 31 mph 1011.7mb 63f
7:00 23 25 mph 1012.6mb 63f
6:00 21 22 mph 1012.6mb 65f
5:00 16 17 mph 1012.5mb 66f
4:00 15 16 mph 1012.8mb 65f
3:00 18 20 mph 1012.7mb 65f
2:00 17 20 mph 1013.4mb 65f
1:00 13 15 mph 1014mb 65f
12:00 10 11 mph 1013.9mb 65f
Dom 07/23 11:00 15 16 mph 1013.3mb 66f
10:00 13 14 mph 1013.3mb 66f
9:00 14 15 mph 1013.4mb 67f
8:00 14 15 mph 1012.7mb 67f
7:00 14 15 mph 1012.4mb 68f
6:00 17 18 mph 1011.8mb 68f
5:00 18 20 mph 1011.6mb 68f
4:00 18 20 mph 1011.5mb 68f
3:00 20 21 mph 1011.3mb 69f
2:00 17 18 mph 1011.5mb 69f
1:00 21 22 mph 1011.2mb 69f
12:00 23 24 mph 1010.5mb 69f
11:00 21 23 mph 1010.4mb 69f
10:00 24 26 mph 1009.5mb 69f
9:00 21 23 mph 1008.9mb 69f
8:00 18 18 mph 1008.2mb 70f
7:00 3 3 mph 1007.8mb 69f
6:00 8 8 mph 1007mb 69f
5:00 7 7 mph 1007mb 71f
4:00 7 7 mph 1007.2mb 72f
3:00 8 8 mph 1007.1mb 71f
2:00 8 8 mph 1007.4mb 71f
1:00  -  0 mph 1008.2mb 72f
12:00 7 7 mph 1009mb 72f
Sáb 07/22 11:00 8 8 mph 1008.9mb 73f
10:00 7 7 mph 1009.2mb 72f
9:00 7 8 mph 1009.2mb 73f
8:00 6 6 mph 1009.4mb 73f
7:00 5 6 mph 1009.3mb 73f
6:00 6 6 mph 1009.5mb 74f
5:00 5 5 mph 1009.6mb 75f
4:00 3 3 mph 1010.3mb 74f
3:00 5 6 mph 1010.7mb 74f
2:00 6 6 mph 1011.2mb 74f
1:00 5 5 mph 1011.6mb 74f
12:00 6 6 mph 1011.8mb 73f
11:00  -  1 mph 1011.8mb 75f
10:00 2 2 mph 1011.7mb 76f
9:00 7 7 mph 1012mb 73f
8:00 7 8 mph 1012.1mb 73f
7:00 7 7 mph 1011.7mb 76f
6:00 10 10 mph 1010.8mb 74f
5:00 8 9 mph 1010.7mb 75f